Terminal Aerodrome Forecast
Issued by NWS

Home | Current Version | Previous Version | Graphics & Text | Print | Product List | Glossary On
Versions: 1 2 3 4 5 6 7 8 9 10 11 12 13 14 15 16 17
110
FTUS43 KOAX 242150 AAA
TAFCDR
TAF AMD
KCDR 242150Z 2422/2518 VRB05KT P6SM VCSH SCT015 OVC050
      TEMPO 2423/2501 2SM -SN OVC015
     FM250500 23004KT P6SM BKN120
     FM251600 25007KT P6SM SCT080=

USA.gov is the U.S. government's official web portal to all federal, state and local government web resources and services.